createdAt,value
2019-03-11T00:00:36.469Z,96581.63
2019-03-11T00:01:44.983Z,96581.63
2019-03-11T00:02:52.109Z,96576.94
2019-03-11T00:03:59.270Z,96580.08
2019-03-11T00:05:06.930Z,96568.16
2019-03-11T00:06:14.305Z,96575.79
2019-03-11T00:07:22.763Z,96568.94
2019-03-11T00:08:29.882Z,96573.16
2019-03-11T00:09:37.047Z,96574.44
2019-03-11T00:10:44.126Z,96576.11
2019-03-11T00:11:51.270Z,96584.63
2019-03-11T00:12:58.405Z,96588.02
2019-03-11T00:14:05.550Z,96589.23
2019-03-11T00:15:12.800Z,96599.48
2019-03-11T00:16:20.112Z,96599.88
2019-03-11T00:17:27.323Z,96599.42
2019-03-11T00:18:34.467Z,96593.02
2019-03-11T00:19:41.656Z,96592.95
2019-03-11T00:20:48.808Z,96601.48
2019-03-11T00:21:56.187Z,96603.50
2019-03-11T00:23:03.352Z,96608.11
2019-03-11T00:24:10.490Z,96599.53
2019-03-11T00:25:17.638Z,96604.20
2019-03-11T00:26:24.796Z,96597.73
2019-03-11T00:27:31.941Z,96600.68
2019-03-11T00:28:39.086Z,96598.50
2019-03-11T00:29:46.224Z,96608.24
2019-03-11T00:30:53.385Z,96601.84
2019-03-11T00:32:00.535Z,96599.21
2019-03-11T00:33:07.699Z,96618.43
2019-03-11T00:34:14.838Z,96600.05
2019-03-11T00:35:22.134Z,96600.42
2019-03-11T00:36:29.328Z,96613.08
2019-03-11T00:37:36.466Z,96612.19
2019-03-11T00:38:43.892Z,96603.60
2019-03-11T00:39:51.026Z,96612.57
2019-03-11T00:40:58.156Z,96607.45
2019-03-11T00:42:05.290Z,96611.16
2019-03-11T00:43:12.438Z,96613.34
2019-03-11T00:44:19.585Z,96617.54
2019-03-11T00:45:26.784Z,96614.08
2019-03-11T00:46:34.090Z,96613.62
2019-03-11T00:47:41.262Z,96611.45
2019-03-11T00:48:48.404Z,96613.18
2019-03-11T00:49:55.568Z,96615.30
2019-03-11T00:51:02.703Z,96612.28
2019-03-11T00:52:09.848Z,96618.69
2019-03-11T00:53:16.996Z,96605.88
2019-03-11T00:54:24.084Z,96616.03
2019-03-11T00:55:31.294Z,96616.86
2019-03-11T00:56:38.392Z,96611.73
2019-03-11T00:57:45.532Z,96605.33
2019-03-11T00:58:52.666Z,96607.45
2019-03-11T00:59:59.807Z,96610.39
2019-03-11T01:01:07.024Z,96613.34
2019-03-11T01:02:15.305Z,96604.75
2019-03-11T01:03:22.437Z,96609.43
2019-03-11T01:04:29.599Z,96606.03
2019-03-11T01:05:36.808Z,96608.98
2019-03-11T01:06:43.964Z,96606.42
2019-03-11T01:07:51.130Z,96601.74
2019-03-11T01:08:58.278Z,96607.70
2019-03-11T01:10:05.804Z,96605.14
2019-03-11T01:11:13.001Z,96605.58
2019-03-11T01:12:20.191Z,96602.13
2019-03-11T01:13:27.341Z,96602.13
2019-03-11T01:14:35.832Z,96605.52
2019-03-11T01:15:44.971Z,96608.08
2019-03-11T01:16:52.122Z,96598.28
2019-03-11T01:17:59.279Z,96608.98
2019-03-11T01:19:06.421Z,96604.75
2019-03-11T01:20:13.771Z,96609.49
2019-03-11T01:21:20.907Z,96602.25
2019-03-11T01:22:28.072Z,96604.37
2019-03-11T01:23:35.216Z,96611.22
2019-03-11T01:24:42.372Z,96606.55
2019-03-11T01:25:49.508Z,96601.94
2019-03-11T01:26:56.654Z,96607.06
2019-03-11T01:28:03.872Z,96609.63
2019-03-11T01:29:11.042Z,96610.07
2019-03-11T01:30:18.628Z,96610.91
2019-03-11T01:31:25.682Z,96611.80
2019-03-11T01:32:33.395Z,96621.16
2019-03-11T01:33:40.550Z,96614.84
2019-03-11T01:34:47.616Z,96612.63
2019-03-11T01:35:54.770Z,96607.51
2019-03-11T01:37:01.921Z,96608.72
2019-03-11T01:38:09.076Z,96607.83
2019-03-11T01:39:16.138Z,96612.95
2019-03-11T01:40:23.284Z,96607.83
2019-03-11T01:41:30.672Z,96603.09
2019-03-11T01:42:37.815Z,96604.37
2019-03-11T01:43:44.979Z,96607.77
2019-03-11T01:44:52.159Z,96599.24
2019-03-11T01:45:59.300Z,96606.03
2019-03-11T01:47:06.443Z,96606.03
2019-03-11T01:48:13.598Z,96598.28
2019-03-11T01:49:20.760Z,96602.95
2019-03-11T01:50:27.931Z,96598.22
2019-03-11T01:51:35.071Z,96607.57
2019-03-11T01:52:42.199Z,96602.89
2019-03-11T01:53:49.350Z,96601.61
2019-03-11T01:54:56.486Z,96599.94
2019-03-11T01:56:03.639Z,96598.15
2019-03-11T01:57:10.696Z,96593.86
2019-03-11T01:58:17.842Z,96595.14
2019-03-11T01:59:25.010Z,96584.44
2019-03-11T02:00:32.141Z,96582.70
2019-03-11T02:01:39.373Z,96577.95
2019-03-11T02:02:46.648Z,96583.53
2019-03-11T02:03:53.793Z,96573.28
2019-03-11T02:05:01.010Z,96580.14
2019-03-11T02:06:08.224Z,96576.67
2019-03-11T02:07:15.395Z,96575.39
2019-03-11T02:08:22.530Z,96575.46
2019-03-11T02:09:29.728Z,96576.30
2019-03-11T02:10:36.861Z,96579.30
2019-03-11T02:11:44.013Z,96570.78
2019-03-11T02:12:51.443Z,96577.19
2019-03-11T02:13:58.595Z,96572.13
2019-03-11T02:15:06.807Z,96576.04
2019-03-11T02:16:15.240Z,96572.27
2019-03-11T02:17:23.772Z,96563.36
2019-03-11T02:18:30.906Z,96561.75
2019-03-11T02:19:38.050Z,96557.98
2019-03-11T02:20:45.246Z,96549.94
2019-03-11T02:21:52.381Z,96554.23
2019-03-11T02:22:59.461Z,96554.68
2019-03-11T02:24:06.592Z,96554.74
2019-03-11T02:25:13.944Z,96556.41
2019-03-11T02:26:21.080Z,96555.58
2019-03-11T02:27:28.763Z,96555.58
2019-03-11T02:28:35.916Z,96562.87
2019-03-11T02:29:43.449Z,96562.87
2019-03-11T02:30:50.604Z,96562.44
2019-03-11T02:31:57.737Z,96556.86
2019-03-11T02:33:04.893Z,96555.96
2019-03-11T02:34:12.040Z,96557.24
2019-03-11T02:35:29.170Z,96562.75
2019-03-11T02:36:36.244Z,96559.26
2019-03-11T02:37:43.581Z,96561.09
2019-03-11T02:38:51.918Z,96564.48
2019-03-11T02:39:59.040Z,96564.09
2019-03-11T02:41:06.180Z,96565.66
2019-03-11T02:42:13.336Z,96565.66
2019-03-11T02:43:20.491Z,96562.66
2019-03-11T02:44:27.655Z,96558.81
2019-03-11T02:45:34.798Z,96566.44
2019-03-11T02:46:41.944Z,96563.87
2019-03-11T02:47:49.108Z,96561.31
2019-03-11T02:48:57.798Z,96560.03
2019-03-11T02:50:05.677Z,96554.13
2019-03-11T02:51:12.952Z,96554.97
2019-03-11T02:52:21.166Z,96551.95
2019-03-11T02:53:28.330Z,96554.06
2019-03-11T02:54:36.546Z,96554.00
2019-03-11T02:55:43.691Z,96550.22
2019-03-11T02:56:50.854Z,96548.42
2019-03-11T02:57:58.464Z,96534.33
2019-03-11T02:59:05.624Z,96536.06
2019-03-11T03:00:14.306Z,96531.31
2019-03-11T03:01:36.213Z,96533.87
2019-03-11T03:03:01.827Z,96537.27
2019-03-11T03:04:13.413Z,96538.63
2019-03-11T03:05:26.800Z,96528.73
2019-03-11T03:06:33.961Z,96530.02
2019-03-11T03:07:41.135Z,96528.28
2019-03-11T03:08:48.307Z,96535.01
2019-03-11T03:09:55.457Z,96523.38
2019-03-11T03:11:04.680Z,96531.83
2019-03-11T03:12:11.849Z,96524.45
2019-03-11T03:13:19.019Z,96528.62
2019-03-11T03:14:26.160Z,96521.70
2019-03-11T03:15:33.306Z,96517.40
2019-03-11T03:16:40.731Z,96513.88
2019-03-11T03:17:48.959Z,96508.13
2019-03-11T03:18:57.693Z,96507.23
2019-03-11T03:20:05.380Z,96507.61
2019-03-11T03:21:12.536Z,96507.16
2019-03-11T03:22:19.685Z,96503.70
2019-03-11T03:23:26.836Z,96501.52
2019-03-11T03:24:33.983Z,96495.94
2019-03-11T03:25:41.189Z,96493.75
2019-03-11T03:26:48.338Z,96496.25
2019-03-11T03:27:55.783Z,96494.90
2019-03-11T03:29:02.918Z,96489.77
2019-03-11T03:30:14.964Z,96488.84
2019-03-11T03:31:22.106Z,96485.83
2019-03-11T03:32:29.241Z,96479.80
2019-03-11T03:33:36.406Z,96481.45
2019-03-11T03:34:43.542Z,96476.64
2019-03-11T03:35:50.686Z,96480.87
2019-03-11T03:36:57.843Z,96480.42
2019-03-11T03:38:05.001Z,96472.72
2019-03-11T03:39:12.140Z,96476.57
2019-03-11T03:40:19.278Z,96470.99
2019-03-11T03:41:26.427Z,96470.47
2019-03-11T03:42:33.609Z,96469.64
2019-03-11T03:43:40.743Z,96467.45
2019-03-11T03:45:26.231Z,96467.84
2019-03-11T03:46:33.557Z,96468.22
2019-03-11T03:47:40.694Z,96463.65
2019-03-11T03:48:48.095Z,96460.73
2019-03-11T03:49:55.295Z,96455.95
2019-03-11T03:51:02.434Z,96456.72
2019-03-11T03:52:09.581Z,96448.13
2019-03-11T03:53:16.722Z,96452.73
2019-03-11T03:54:23.935Z,96451.83
2019-03-11T03:55:31.101Z,96446.70
2019-03-11T03:56:38.237Z,96447.08
2019-03-11T03:57:45.384Z,96444.00
2019-03-11T03:58:52.521Z,96440.91
2019-03-11T03:59:59.683Z,96437.44
2019-03-11T04:01:06.825Z,96436.89
2019-03-11T04:02:13.963Z,96438.94
2019-03-11T04:03:21.129Z,96426.48
2019-03-11T04:04:28.274Z,96428.15
2019-03-11T04:05:35.431Z,96435.77
2019-03-11T04:06:42.646Z,96427.25
2019-03-11T04:07:51.111Z,96425.06
2019-03-11T04:08:58.215Z,96424.23
2019-03-11T04:10:06.199Z,96425.52
2019-03-11T04:11:13.364Z,96413.97
2019-03-11T04:12:20.507Z,96411.41
2019-03-11T04:13:27.662Z,96412.23
2019-03-11T04:14:34.817Z,96410.05
2019-03-11T04:15:41.807Z,96404.47
2019-03-11T04:16:48.956Z,96401.08
2019-03-11T04:17:56.110Z,96400.62
2019-03-11T04:19:03.272Z,96397.69
2019-03-11T04:20:13.543Z,96397.23
2019-03-11T04:21:20.907Z,96399.34
2019-03-11T04:22:28.071Z,96399.27
2019-03-11T04:23:35.217Z,96398.37
2019-03-11T04:24:42.363Z,96391.33
2019-03-11T04:25:49.503Z,96391.70
2019-03-11T04:26:57.399Z,96389.00
2019-03-11T04:28:05.540Z,96397.90
2019-03-11T04:29:12.781Z,96396.09
2019-03-11T04:30:23.225Z,96399.03
2019-03-11T04:31:30.515Z,96402.70
2019-03-11T04:32:37.675Z,96398.48
2019-03-11T04:33:44.819Z,96400.97
2019-03-11T04:34:51.968Z,96391.54
2019-03-11T04:35:59.145Z,96395.31
2019-03-11T04:37:06.272Z,96394.03
2019-03-11T04:38:13.456Z,96390.64
2019-03-11T04:39:20.607Z,96384.60
2019-03-11T04:40:27.766Z,96385.88
2019-03-11T04:41:35.373Z,96387.09
2019-03-11T04:42:42.509Z,96383.24
2019-03-11T04:43:49.675Z,96378.48
2019-03-11T04:44:56.821Z,96381.43
2019-03-11T04:46:03.965Z,96387.84
2019-03-11T04:47:11.197Z,96384.00
2019-03-11T04:48:18.360Z,96393.28
2019-03-11T04:49:25.503Z,96393.28
2019-03-11T04:50:32.682Z,96394.11
2019-03-11T04:51:39.824Z,96405.66
2019-03-11T04:52:46.969Z,96404.00
2019-03-11T04:53:54.127Z,96396.00
2019-03-11T04:55:01.272Z,96393.95
2019-03-11T04:56:08.408Z,96406.86
2019-03-11T04:57:15.563Z,96400.59
2019-03-11T04:58:23.827Z,96402.50
2019-03-11T04:59:30.996Z,96387.19
2019-03-11T05:00:38.246Z,96398.80
2019-03-11T05:01:45.484Z,96395.94
2019-03-11T05:02:52.641Z,96390.42
2019-03-11T05:03:59.788Z,96382.73
2019-03-11T05:05:07.576Z,96380.69
2019-03-11T05:06:14.722Z,96382.52
2019-03-11T05:07:21.867Z,96378.30
2019-03-11T05:08:29.365Z,96371.96
2019-03-11T05:09:36.467Z,96367.66
2019-03-11T05:10:43.626Z,96365.09
2019-03-11T05:11:50.763Z,96362.08
2019-03-11T05:12:57.912Z,96366.83
2019-03-11T05:14:05.049Z,96360.49
2019-03-11T05:15:13.078Z,96354.53
2019-03-11T05:16:20.312Z,96359.66
2019-03-11T05:17:27.722Z,96357.17
2019-03-11T05:18:34.895Z,96358.52
2019-03-11T05:19:42.104Z,96368.78
2019-03-11T05:20:50.278Z,96358.59
2019-03-11T05:21:57.413Z,96359.05
2019-03-11T05:23:04.564Z,96364.63
2019-03-11T05:24:11.894Z,96359.13
2019-03-11T05:25:19.052Z,96362.14
2019-03-11T05:26:26.195Z,96368.66
2019-03-11T05:27:33.352Z,96367.38
2019-03-11T05:28:40.557Z,96365.26
2019-03-11T05:29:47.690Z,96366.99
2019-03-11T05:30:54.865Z,96361.41
2019-03-11T05:32:02.081Z,96353.34
2019-03-11T05:33:09.221Z,96348.21
2019-03-11T05:34:18.373Z,96352.05
2019-03-11T05:35:25.200Z,96350.39
2019-03-11T05:36:32.377Z,96351.67
2019-03-11T05:37:40.607Z,96354.69
2019-03-11T05:38:47.788Z,96340.59
2019-03-11T05:39:54.939Z,96342.33
2019-03-11T05:41:02.075Z,96350.02
2019-03-11T05:42:09.244Z,96337.65
2019-03-11T05:43:16.390Z,96346.62
2019-03-11T05:44:23.553Z,96337.20
2019-03-11T05:45:30.689Z,96331.23
2019-03-11T05:46:37.839Z,96330.78
2019-03-11T05:47:45.003Z,96329.50
2019-03-11T05:48:52.150Z,96323.92
2019-03-11T05:49:59.285Z,96322.19
2019-03-11T05:51:06.479Z,96317.06
2019-03-11T05:52:13.632Z,96314.49
2019-03-11T05:53:20.850Z,96314.49
2019-03-11T05:54:28.026Z,96314.88
2019-03-11T05:55:35.186Z,96317.44
2019-03-11T05:56:42.333Z,96311.48
2019-03-11T05:57:49.481Z,96310.65
2019-03-11T05:58:56.630Z,96322.72
2019-03-11T06:00:03.962Z,96324.06
2019-03-11T06:01:11.118Z,96322.86
2019-03-11T06:02:18.273Z,96320.37
2019-03-11T06:03:25.419Z,96322.10
2019-03-11T06:04:32.570Z,96315.31
2019-03-11T06:05:39.828Z,96329.03
2019-03-11T06:06:46.997Z,96322.73
2019-03-11T06:07:54.140Z,96315.94
2019-03-11T06:09:01.282Z,96326.65
2019-03-11T06:10:10.882Z,96326.65
2019-03-11T06:11:18.008Z,96326.72
2019-03-11T06:12:25.164Z,96324.23
2019-03-11T06:13:36.251Z,96332.45
2019-03-11T06:14:41.159Z,96326.11
2019-03-11T06:15:48.366Z,96323.23
2019-03-11T06:16:55.494Z,96335.60
2019-03-11T06:18:02.635Z,96333.49
2019-03-11T06:19:09.791Z,96340.84
2019-03-11T06:20:48.136Z,96347.70
2019-03-11T06:22:00.726Z,96360.96
2019-03-11T06:23:10.251Z,96375.10
2019-03-11T06:24:17.409Z,96365.55
2019-03-11T06:25:24.553Z,96367.83
2019-03-11T06:26:31.742Z,96374.00
2019-03-11T06:27:38.886Z,96363.92
2019-03-11T06:28:46.058Z,96370.91
2019-03-11T06:29:53.272Z,96377.45
2019-03-11T06:31:00.299Z,96377.59
2019-03-11T06:32:07.445Z,96374.89
2019-03-11T06:33:14.605Z,96362.66
2019-03-11T06:34:21.737Z,96354.39
2019-03-11T06:35:29.162Z,96364.39
2019-03-11T06:36:36.296Z,96367.59
2019-03-11T06:37:43.446Z,96381.02
2019-03-11T06:38:50.581Z,96380.25
2019-03-11T06:39:57.645Z,96385.06
2019-03-11T06:41:04.806Z,96384.30
2019-03-11T06:42:11.960Z,96391.59
2019-03-11T06:43:19.065Z,96404.39
2019-03-11T06:44:26.187Z,96389.03
2019-03-11T06:45:33.365Z,96364.70
2019-03-11T06:46:40.453Z,96333.53
2019-03-11T06:47:47.593Z,96329.77
2019-03-11T06:48:54.752Z,96357.48
2019-03-11T06:50:02.005Z,96368.17
2019-03-11T06:51:09.210Z,96366.05
2019-03-11T06:52:16.364Z,96374.25
2019-03-11T06:53:23.560Z,96367.12
2019-03-11T06:54:30.896Z,96373.20
2019-03-11T06:55:39.134Z,96375.51
2019-03-11T06:56:46.266Z,96382.42
2019-03-11T06:57:53.485Z,96383.48
2019-03-11T06:59:01.742Z,96394.17
2019-03-11T07:00:11.687Z,96388.28
2019-03-11T07:01:18.913Z,96386.55
2019-03-11T07:02:26.048Z,96396.86
2019-03-11T07:03:33.252Z,96396.92
2019-03-11T07:04:40.405Z,96399.55
2019-03-11T07:05:47.579Z,96405.95
2019-03-11T07:06:54.712Z,96404.28
2019-03-11T07:08:01.921Z,96405.56
2019-03-11T07:09:10.287Z,96409.78
2019-03-11T07:10:17.633Z,96411.13
2019-03-11T07:11:24.774Z,96417.53
2019-03-11T07:12:32.203Z,96409.41
2019-03-11T07:13:39.791Z,96414.52
2019-03-11T07:14:46.884Z,96422.58
2019-03-11T07:15:54.042Z,96419.13
2019-03-11T07:17:01.216Z,96424.25
2019-03-11T07:18:08.349Z,96420.86
2019-03-11T07:19:15.570Z,96418.68
2019-03-11T07:20:22.742Z,96417.47
2019-03-11T07:21:29.912Z,96407.23
2019-03-11T07:22:37.289Z,96410.62
2019-03-11T07:23:44.587Z,96419.58
2019-03-11T07:24:51.790Z,96408.44
2019-03-11T07:25:59.018Z,96400.77
2019-03-11T07:27:06.202Z,96412.22
2019-03-11T07:28:13.348Z,96415.61
2019-03-11T07:29:20.707Z,96415.22
2019-03-11T07:30:28.140Z,96415.99
2019-03-11T07:31:35.367Z,96429.62
2019-03-11T07:32:42.543Z,96424.50
2019-03-11T07:33:49.773Z,96419.77
2019-03-11T07:35:07.727Z,96413.38
2019-03-11T07:36:07.159Z,96414.94
2019-03-11T07:37:14.503Z,96417.05
2019-03-11T07:38:21.621Z,96414.88
2019-03-11T07:39:28.915Z,96416.98
2019-03-11T07:40:36.323Z,96418.20
2019-03-11T07:41:43.414Z,96425.05
2019-03-11T07:42:50.578Z,96428.82
2019-03-11T07:43:58.072Z,96433.87
2019-03-11T07:45:05.872Z,96430.48
2019-03-11T07:46:12.998Z,96426.64
2019-03-11T07:47:20.155Z,96438.10
2019-03-11T07:48:27.758Z,96438.55
2019-03-11T07:49:35.871Z,96440.98
2019-03-11T07:50:43.011Z,96439.31
2019-03-11T07:51:50.311Z,96437.97
2019-03-11T07:52:58.590Z,96444.38
2019-03-11T07:54:06.910Z,96439.19
2019-03-11T07:55:14.377Z,96448.05
2019-03-11T07:56:21.541Z,96443.77
2019-03-11T07:57:28.704Z,96437.75
2019-03-11T07:58:35.913Z,96447.09
2019-03-11T07:59:43.115Z,96447.92
2019-03-11T08:00:54.194Z,96449.59
2019-03-11T08:01:59.109Z,96455.09
2019-03-11T08:03:06.367Z,96456.82
2019-03-11T08:04:13.612Z,96461.88
2019-03-11T08:05:20.751Z,96460.98
2019-03-11T08:06:27.902Z,96471.55
2019-03-11T08:07:35.152Z,96465.59
2019-03-11T08:08:42.344Z,96467.64
2019-03-11T08:09:49.486Z,96469.72
2019-03-11T08:10:56.694Z,96471.09
2019-03-11T08:12:04.192Z,96475.32
2019-03-11T08:13:11.638Z,96480.89
2019-03-11T08:14:18.810Z,96471.48
2019-03-11T08:15:26.139Z,96485.56
2019-03-11T08:16:33.525Z,96467.16
2019-03-11T08:17:40.732Z,96477.41
2019-03-11T08:18:47.913Z,96482.91
2019-03-11T08:19:55.341Z,96479.06
2019-03-11T08:21:03.863Z,96485.85
2019-03-11T08:22:11.006Z,96481.11
2019-03-11T08:23:18.390Z,96479.00
2019-03-11T08:24:26.766Z,96482.84
2019-03-11T08:25:33.954Z,96479.00
2019-03-11T08:26:41.167Z,96480.28
2019-03-11T08:27:48.348Z,96478.94
2019-03-11T08:28:55.543Z,96482.27
2019-03-11T08:30:02.733Z,96489.50
2019-03-11T08:31:11.893Z,96481.37
2019-03-11T08:32:19.106Z,96476.70
2019-03-11T08:33:26.245Z,96480.98
2019-03-11T08:34:33.393Z,96480.92
2019-03-11T08:35:40.566Z,96472.41
2019-03-11T08:36:47.721Z,96485.14
2019-03-11T08:37:55.152Z,96482.58
2019-03-11T08:39:02.316Z,96478.30
2019-03-11T08:40:12.229Z,96480.86
2019-03-11T08:41:21.563Z,96478.30
2019-03-11T08:42:28.840Z,96480.79
2019-03-11T08:43:36.018Z,96482.45
2019-03-11T08:44:43.297Z,96480.72
2019-03-11T08:45:50.528Z,96478.83
2019-03-11T08:46:59.666Z,96481.78
2019-03-11T08:48:06.799Z,96475.31
2019-03-11T08:49:13.971Z,96476.08
2019-03-11T08:50:21.112Z,96467.49
2019-03-11T08:51:28.259Z,96466.08
2019-03-11T08:52:35.417Z,96459.51
2019-03-11T08:53:42.670Z,96463.67
2019-03-11T08:54:49.850Z,96460.59
2019-03-11T08:55:57.007Z,96454.95
2019-03-11T08:57:04.342Z,96461.67
2019-03-11T08:58:11.806Z,96459.49
2019-03-11T08:59:18.869Z,96463.17
2019-03-11T09:00:26.169Z,96466.11
2019-03-11T09:01:33.524Z,96469.12
2019-03-11T09:02:40.797Z,96476.88
2019-03-11T09:03:48.192Z,96483.28
2019-03-11T09:04:55.335Z,96491.04
2019-03-11T09:06:02.499Z,96494.60
2019-03-11T09:07:09.647Z,96504.08
2019-03-11T09:08:16.795Z,96509.66
2019-03-11T09:09:23.898Z,96509.27
2019-03-11T09:10:31.391Z,96515.30
2019-03-11T09:11:38.671Z,96526.44
2019-03-11T09:12:46.134Z,96510.69
2019-03-11T09:13:53.204Z,96509.02
2019-03-11T09:15:00.524Z,96501.33
2019-03-11T09:16:09.378Z,96505.95
2019-03-11T09:17:16.521Z,96506.78
2019-03-11T09:18:24.863Z,96510.11
2019-03-11T09:19:32.215Z,96506.20
2019-03-11T09:20:39.358Z,96500.55
2019-03-11T09:21:46.528Z,96500.48
2019-03-11T09:22:53.776Z,96506.80
2019-03-11T09:24:00.927Z,96502.37
2019-03-11T09:25:10.939Z,96499.30
2019-03-11T09:26:18.076Z,96504.32
2019-03-11T09:27:25.463Z,96512.77
2019-03-11T09:28:32.891Z,96510.87
2019-03-11T09:29:40.154Z,96511.19
2019-03-11T09:30:47.367Z,96517.47
2019-03-11T09:31:54.847Z,96510.47
2019-03-11T09:33:02.131Z,96505.18
2019-03-11T09:34:09.462Z,96506.64
2019-03-11T09:35:18.360Z,96508.52
2019-03-11T09:36:25.682Z,96507.94
2019-03-11T09:37:32.854Z,96501.38
2019-03-11T09:38:40.015Z,96516.95
2019-03-11T09:39:47.152Z,96514.21
2019-03-11T09:40:54.479Z,96509.39
2019-03-11T09:42:01.546Z,96498.30
2019-03-11T09:43:08.697Z,96506.76
2019-03-11T09:44:15.828Z,96505.41
2019-03-11T09:45:24.260Z,96518.16
2019-03-11T09:46:31.696Z,96510.84
2019-03-11T09:47:38.976Z,96514.14
2019-03-11T09:48:46.277Z,96512.34
2019-03-11T09:49:53.416Z,96507.07
2019-03-11T09:51:00.574Z,96503.08
2019-03-11T09:52:08.140Z,96506.79
2019-03-11T09:53:15.216Z,96509.19
2019-03-11T09:54:22.357Z,96507.69
2019-03-11T09:55:29.692Z,96517.73
2019-03-11T09:56:43.293Z,96511.15
2019-03-11T09:57:45.802Z,96519.16
2019-03-11T09:58:52.946Z,96503.23
2019-03-11T10:00:01.696Z,96521.51
2019-03-11T10:01:08.993Z,96503.09
2019-03-11T10:02:16.217Z,96511.63
2019-03-11T10:03:23.447Z,96506.80
2019-03-11T10:04:30.614Z,96494.23
2019-03-11T10:05:37.778Z,96506.09
2019-03-11T10:06:44.917Z,96499.53
2019-03-11T10:07:52.226Z,96507.55
2019-03-11T10:08:59.476Z,96509.94
2019-03-11T10:10:08.890Z,96522.70
2019-03-11T10:11:16.106Z,96514.02
2019-03-11T10:12:23.406Z,96533.66
2019-03-11T10:13:30.571Z,96516.52
2019-03-11T10:14:37.723Z,96516.89
2019-03-11T10:15:45.030Z,96527.47
2019-03-11T10:16:52.166Z,96521.05
2019-03-11T10:17:59.600Z,96525.20
2019-03-11T10:19:06.859Z,96519.13
2019-03-11T10:20:14.954Z,96514.68
2019-03-11T10:21:23.085Z,96522.16
2019-03-11T10:22:30.363Z,96530.91
2019-03-11T10:23:37.644Z,96508.92
2019-03-11T10:24:44.795Z,96527.06
2019-03-11T10:25:52.062Z,96530.66
2019-03-11T10:26:59.205Z,96524.01
2019-03-11T10:28:06.365Z,96529.45
2019-03-11T10:29:13.714Z,96522.88
2019-03-11T10:30:21.048Z,96527.11
2019-03-11T10:31:28.196Z,96521.86
2019-03-11T10:32:35.488Z,96529.95
2019-03-11T10:33:42.670Z,96526.02
2019-03-11T10:34:49.986Z,96525.56
2019-03-11T10:35:57.153Z,96523.83
2019-03-11T10:37:04.294Z,96534.11
2019-03-11T10:38:11.470Z,96533.95
2019-03-11T10:39:18.662Z,96541.66
2019-03-11T10:40:26.069Z,96539.09
2019-03-11T10:41:33.228Z,96544.61
2019-03-11T10:42:41.006Z,96545.06
2019-03-11T10:43:48.161Z,96545.06
2019-03-11T10:44:55.358Z,96551.87
2019-03-11T10:46:02.536Z,96550.20
2019-03-11T10:47:09.678Z,96547.11
2019-03-11T10:48:16.819Z,96548.02
2019-03-11T10:49:23.894Z,96550.66
2019-03-11T10:50:31.055Z,96550.66
2019-03-11T10:51:38.307Z,96548.23
2019-03-11T10:52:45.462Z,96569.25
2019-03-11T10:53:52.609Z,96562.70
2019-03-11T10:55:00.944Z,96576.15
2019-03-11T10:56:08.307Z,96579.46
2019-03-11T10:57:15.839Z,96576.84
2019-03-11T10:58:23.107Z,96575.84
2019-03-11T10:59:30.801Z,96571.03
2019-03-11T11:00:39.205Z,96561.43
2019-03-11T11:01:46.424Z,96564.70
2019-03-11T11:02:53.867Z,96555.41
2019-03-11T11:04:01.208Z,96562.27
2019-03-11T11:05:09.133Z,96565.67
2019-03-11T11:06:17.267Z,96566.89
2019-03-11T11:07:24.829Z,96569.38
2019-03-11T11:08:32.213Z,96572.26
2019-03-11T11:09:39.789Z,96562.27
2019-03-11T11:10:47.697Z,96568.09
2019-03-11T11:11:55.222Z,96571.03
2019-03-11T11:13:03.357Z,96570.58
2019-03-11T11:14:10.509Z,96559.93
2019-03-11T11:15:22.100Z,96560.38
2019-03-11T11:16:29.243Z,96559.93
2019-03-11T11:17:36.385Z,96571.03
2019-03-11T11:18:43.569Z,96571.87
2019-03-11T11:19:50.764Z,96582.45
2019-03-11T11:20:57.936Z,96573.38
2019-03-11T11:22:05.304Z,96572.83
2019-03-11T11:23:12.661Z,96574.73
2019-03-11T11:24:19.801Z,96572.47
2019-03-11T11:25:29.206Z,96584.08
2019-03-11T11:26:36.341Z,96575.77
2019-03-11T11:27:43.490Z,96579.78
2019-03-11T11:28:50.643Z,96583.38
2019-03-11T11:29:58.131Z,96573.18
2019-03-11T11:31:07.406Z,96582.22
2019-03-11T11:32:14.597Z,96565.11
2019-03-11T11:33:22.003Z,96570.35
2019-03-11T11:34:29.214Z,96576.81
2019-03-11T11:35:36.403Z,96582.11
2019-03-11T11:36:43.579Z,96575.80
2019-03-11T11:37:51.124Z,96581.98
2019-03-11T11:38:58.586Z,96575.41
2019-03-11T11:40:07.831Z,96590.23
2019-03-11T11:41:16.551Z,96574.88
2019-03-11T11:42:23.976Z,96585.54
2019-03-11T11:43:31.153Z,96583.88
2019-03-11T11:44:38.403Z,96584.14
2019-03-11T11:45:45.980Z,96589.77
2019-03-11T11:46:53.278Z,96592.69
2019-03-11T11:48:01.503Z,96588.75
2019-03-11T11:49:08.666Z,96585.66
2019-03-11T11:50:18.210Z,96591.09
2019-03-11T11:51:25.626Z,96586.63
2019-03-11T11:52:34.094Z,96589.76
2019-03-11T11:53:41.889Z,96584.45
2019-03-11T11:54:49.046Z,96586.80
2019-03-11T11:55:57.920Z,96580.55
2019-03-11T11:57:05.109Z,96581.89
2019-03-11T11:58:12.298Z,96580.33
2019-03-11T11:59:20.813Z,96577.36
2019-03-11T12:00:29.970Z,96583.89
2019-03-11T12:01:37.208Z,96590.83
2019-03-11T12:02:44.758Z,96592.14
2019-03-11T12:03:51.946Z,96596.59
2019-03-11T12:04:59.377Z,96579.94
2019-03-11T12:06:06.832Z,96590.37
2019-03-11T12:07:14.053Z,96577.16
2019-03-11T12:08:21.583Z,96578.08
2019-03-11T12:09:28.895Z,96566.61
2019-03-11T12:10:36.232Z,96565.03
2019-03-11T12:11:43.361Z,96568.56
2019-03-11T12:12:50.523Z,96558.34
2019-03-11T12:13:57.700Z,96564.81
2019-03-11T12:15:05.688Z,96562.44
2019-03-11T12:16:12.839Z,96558.14
2019-03-11T12:17:19.994Z,96557.77
2019-03-11T12:18:27.171Z,96568.19
2019-03-11T12:19:34.360Z,96566.26
2019-03-11T12:20:41.621Z,96574.62
2019-03-11T12:21:50.927Z,96604.39
2019-03-11T12:22:58.236Z,96601.61
2019-03-11T12:24:05.545Z,96611.35
2019-03-11T12:25:13.892Z,96612.09
2019-03-11T12:26:21.126Z,96612.98
2019-03-11T12:27:28.273Z,96608.80
2019-03-11T12:28:36.934Z,96617.52
2019-03-11T12:29:44.082Z,96614.27
2019-03-11T12:30:52.325Z,96614.51
2019-03-11T12:31:59.717Z,96616.48
2019-03-11T12:33:06.898Z,96608.42
2019-03-11T12:34:14.051Z,96602.95
2019-03-11T12:35:21.200Z,96604.30
2019-03-11T12:36:28.625Z,96606.28
2019-03-11T12:37:35.786Z,96597.62
2019-03-11T12:38:43.051Z,96608.61
2019-03-11T12:39:50.269Z,96594.16
2019-03-11T12:40:57.489Z,96599.84
2019-03-11T12:42:05.756Z,96597.73
2019-03-11T12:43:13.138Z,96585.31
2019-03-11T12:44:20.371Z,96598.55
2019-03-11T12:45:27.699Z,96601.59
2019-03-11T12:46:34.975Z,96597.19
2019-03-11T12:47:42.455Z,96619.89
2019-03-11T12:48:49.617Z,96597.19
2019-03-11T12:49:56.856Z,96588.86
2019-03-11T12:51:04.138Z,96611.41
2019-03-11T12:52:11.623Z,96587.79
2019-03-11T12:53:18.812Z,96596.98
2019-03-11T12:54:25.987Z,96604.84
2019-03-11T12:55:33.181Z,96604.59
2019-03-11T12:56:40.348Z,96594.02
2019-03-11T12:57:47.519Z,96612.42
2019-03-11T12:58:54.686Z,96599.47
2019-03-11T13:00:02.189Z,96606.73
2019-03-11T13:01:11.051Z,96606.20
2019-03-11T13:02:18.195Z,96603.09
2019-03-11T13:03:25.396Z,96598.49
2019-03-11T13:04:32.562Z,96604.69
2019-03-11T13:05:39.781Z,96604.89
2019-03-11T13:06:47.017Z,96596.44
2019-03-11T13:07:56.318Z,96601.80
2019-03-11T13:09:03.856Z,96600.52
2019-03-11T13:10:15.770Z,96589.97
2019-03-11T13:11:22.937Z,96595.95
2019-03-11T13:12:30.194Z,96598.11
2019-03-11T13:13:37.763Z,96592.96